sensor_id;sensor_type;location;lat;lon;timestamp;P1;durP1;ratioP1;P2;durP2;ratioP2
7029;SDS011;3556;53.500;10.176;2023-02-01T00:02:18;22.53;;;3.63;;
7029;SDS011;3556;53.500;10.176;2023-02-01T00:04:43;23.67;;;3.23;;
7029;SDS011;3556;53.500;10.176;2023-02-01T00:07:09;12.90;;;2.87;;
7029;SDS011;3556;53.500;10.176;2023-02-01T00:09:34;20.23;;;3.20;;
7029;SDS011;3556;53.500;10.176;2023-02-01T00:12:00;25.37;;;2.73;;
7029;SDS011;3556;53.500;10.176;2023-02-01T00:14:27;24.53;;;3.30;;
7029;SDS011;3556;53.500;10.176;2023-02-01T00:16:53;20.87;;;3.67;;
7029;SDS011;3556;53.500;10.176;2023-02-01T00:19:19;21.60;;;3.60;;
7029;SDS011;3556;53.500;10.176;2023-02-01T00:21:45;30.73;;;4.43;;
7029;SDS011;3556;53.500;10.176;2023-02-01T00:24:10;13.57;;;3.17;;
7029;SDS011;3556;53.500;10.176;2023-02-01T00:26:40;27.37;;;4.23;;
7029;SDS011;3556;53.500;10.176;2023-02-01T00:29:12;19.23;;;2.83;;
7029;SDS011;3556;53.500;10.176;2023-02-01T00:31:39;24.70;;;4.40;;
7029;SDS011;3556;53.500;10.176;2023-02-01T00:34:05;22.40;;;3.67;;
7029;SDS011;3556;53.500;10.176;2023-02-01T00:36:31;30.73;;;4.23;;
7029;SDS011;3556;53.500;10.176;2023-02-01T00:38:57;24.73;;;3.37;;
7029;SDS011;3556;53.500;10.176;2023-02-01T00:41:23;30.37;;;4.70;;
7029;SDS011;3556;53.500;10.176;2023-02-01T00:43:49;24.87;;;4.87;;
7029;SDS011;3556;53.500;10.176;2023-02-01T00:46:16;17.90;;;3.30;;
7029;SDS011;3556;53.500;10.176;2023-02-01T00:48:43;29.40;;;4.17;;
7029;SDS011;3556;53.500;10.176;2023-02-01T00:51:10;30.30;;;4.33;;
7029;SDS011;3556;53.500;10.176;2023-02-01T00:53:37;29.67;;;4.53;;
7029;SDS011;3556;53.500;10.176;2023-02-01T00:56:03;26.37;;;4.30;;
7029;SDS011;3556;53.500;10.176;2023-02-01T00:58:30;32.63;;;5.00;;
7029;SDS011;3556;53.500;10.176;2023-02-01T01:01:18;27.43;;;4.17;;
7029;SDS011;3556;53.500;10.176;2023-02-01T01:03:45;17.60;;;3.33;;
7029;SDS011;3556;53.500;10.176;2023-02-01T01:06:14;36.70;;;4.50;;
7029;SDS011;3556;53.500;10.176;2023-02-01T01:08:41;20.83;;;4.07;;
7029;SDS011;3556;53.500;10.176;2023-02-01T01:11:08;21.27;;;3.77;;
7029;SDS011;3556;53.500;10.176;2023-02-01T01:13:43;40.40;;;5.07;;
7029;SDS011;3556;53.500;10.176;2023-02-01T01:16:15;36.37;;;5.70;;
7029;SDS011;3556;53.500;10.176;2023-02-01T01:18:41;30.73;;;5.90;;
7029;SDS011;3556;53.500;10.176;2023-02-01T01:21:08;27.20;;;3.40;;
7029;SDS011;3556;53.500;10.176;2023-02-01T01:23:34;32.93;;;4.33;;
7029;SDS011;3556;53.500;10.176;2023-02-01T01:26:04;22.23;;;4.63;;
7029;SDS011;3556;53.500;10.176;2023-02-01T01:28:34;35.10;;;4.67;;
7029;SDS011;3556;53.500;10.176;2023-02-01T01:31:00;28.40;;;4.80;;
7029;SDS011;3556;53.500;10.176;2023-02-01T01:33:26;33.27;;;4.80;;
7029;SDS011;3556;53.500;10.176;2023-02-01T01:35:51;32.93;;;5.00;;
7029;SDS011;3556;53.500;10.176;2023-02-01T01:38:17;32.83;;;5.87;;
7029;SDS011;3556;53.500;10.176;2023-02-01T01:40:46;29.60;;;4.70;;
7029;SDS011;3556;53.500;10.176;2023-02-01T01:43:15;41.73;;;4.90;;
7029;SDS011;3556;53.500;10.176;2023-02-01T01:45:44;32.50;;;4.70;;
7029;SDS011;3556;53.500;10.176;2023-02-01T01:50:42;38.97;;;4.63;;
7029;SDS011;3556;53.500;10.176;2023-02-01T01:53:13;39.13;;;5.13;;
7029;SDS011;3556;53.500;10.176;2023-02-01T01:55:43;32.73;;;5.03;;
7029;SDS011;3556;53.500;10.176;2023-02-01T01:58:14;42.90;;;4.80;;
7029;SDS011;3556;53.500;10.176;2023-02-01T02:00:43;55.57;;;5.03;;
7029;SDS011;3556;53.500;10.176;2023-02-01T02:03:15;61.97;;;5.70;;
7029;SDS011;3556;53.500;10.176;2023-02-01T02:05:47;24.93;;;4.33;;
7029;SDS011;3556;53.500;10.176;2023-02-01T02:08:14;32.00;;;5.17;;
7029;SDS011;3556;53.500;10.176;2023-02-01T02:10:41;36.33;;;4.90;;
7029;SDS011;3556;53.500;10.176;2023-02-01T02:13:41;33.57;;;5.17;;
7029;SDS011;3556;53.500;10.176;2023-02-01T02:16:17;25.73;;;4.90;;
7029;SDS011;3556;53.500;10.176;2023-02-01T02:19:07;40.20;;;4.53;;
7029;SDS011;3556;53.500;10.176;2023-02-01T02:21:56;36.30;;;5.30;;
7029;SDS011;3556;53.500;10.176;2023-02-01T02:38:29;33.30;;;5.00;;
7029;SDS011;3556;53.500;10.176;2023-02-01T02:43:45;33.63;;;5.10;;
7029;SDS011;3556;53.500;10.176;2023-02-01T02:46:38;33.87;;;4.63;;
7029;SDS011;3556;53.500;10.176;2023-02-01T02:49:29;30.10;;;5.00;;
7029;SDS011;3556;53.500;10.176;2023-02-01T02:52:46;37.33;;;5.40;;
7029;SDS011;3556;53.500;10.176;2023-02-01T02:55:40;36.37;;;5.10;;
7029;SDS011;3556;53.500;10.176;2023-02-01T02:58:07;26.20;;;4.50;;
7029;SDS011;3556;53.500;10.176;2023-02-01T03:00:51;40.13;;;5.00;;
7029;SDS011;3556;53.500;10.176;2023-02-01T03:03:37;35.40;;;5.20;;
7029;SDS011;3556;53.500;10.176;2023-02-01T03:06:22;50.17;;;5.53;;
7029;SDS011;3556;53.500;10.176;2023-02-01T03:08:49;38.17;;;6.23;;
7029;SDS011;3556;53.500;10.176;2023-02-01T03:11:22;38.60;;;5.23;;
7029;SDS011;3556;53.500;10.176;2023-02-01T03:14:08;39.00;;;5.13;;
7029;SDS011;3556;53.500;10.176;2023-02-01T03:16:39;35.20;;;5.60;;
7029;SDS011;3556;53.500;10.176;2023-02-01T03:24:21;28.10;;;4.47;;
7029;SDS011;3556;53.500;10.176;2023-02-01T03:27:34;25.63;;;4.07;;
7029;SDS011;3556;53.500;10.176;2023-02-01T03:29:59;36.23;;;5.33;;
7029;SDS011;3556;53.500;10.176;2023-02-01T03:32:36;26.90;;;4.10;;
7029;SDS011;3556;53.500;10.176;2023-02-01T03:35:25;31.47;;;3.90;;
7029;SDS011;3556;53.500;10.176;2023-02-01T03:49:23;3.80;;;1.70;;
7029;SDS011;3556;53.500;10.176;2023-02-01T03:52:14;9.30;;;1.60;;
7029;SDS011;3556;53.500;10.176;2023-02-01T03:54:45;8.77;;;1.40;;
7029;SDS011;3556;53.500;10.176;2023-02-01T03:57:13;2.73;;;1.53;;
7029;SDS011;3556;53.500;10.176;2023-02-01T03:59:42;4.67;;;1.40;;
7029;SDS011;3556;53.500;10.176;2023-02-01T04:02:09;3.83;;;1.87;;
7029;SDS011;3556;53.500;10.176;2023-02-01T04:04:36;11.60;;;1.77;;
7029;SDS011;3556;53.500;10.176;2023-02-01T04:07:02;9.93;;;2.03;;
7029;SDS011;3556;53.500;10.176;2023-02-01T04:09:28;19.10;;;3.40;;
7029;SDS011;3556;53.500;10.176;2023-02-01T04:11:54;12.50;;;2.70;;
7029;SDS011;3556;53.500;10.176;2023-02-01T04:14:19;28.17;;;3.27;;
7029;SDS011;3556;53.500;10.176;2023-02-01T04:16:45;20.90;;;3.03;;
7029;SDS011;3556;53.500;10.176;2023-02-01T04:19:11;25.93;;;2.93;;
7029;SDS011;3556;53.500;10.176;2023-02-01T04:21:36;15.67;;;3.17;;
7029;SDS011;3556;53.500;10.176;2023-02-01T04:24:02;18.87;;;2.60;;
7029;SDS011;3556;53.500;10.176;2023-02-01T04:26:28;13.20;;;2.90;;
7029;SDS011;3556;53.500;10.176;2023-02-01T04:28:54;18.07;;;3.67;;
7029;SDS011;3556;53.500;10.176;2023-02-01T04:31:19;17.47;;;3.37;;
7029;SDS011;3556;53.500;10.176;2023-02-01T04:33:54;17.77;;;3.27;;
7029;SDS011;3556;53.500;10.176;2023-02-01T04:36:22;22.10;;;2.97;;
7029;SDS011;3556;53.500;10.176;2023-02-01T04:38:48;12.83;;;2.60;;
7029;SDS011;3556;53.500;10.176;2023-02-01T04:41:15;19.40;;;4.03;;
7029;SDS011;3556;53.500;10.176;2023-02-01T04:43:43;15.97;;;2.57;;
7029;SDS011;3556;53.500;10.176;2023-02-01T04:46:13;19.70;;;3.50;;
7029;SDS011;3556;53.500;10.176;2023-02-01T04:48:39;10.90;;;2.57;;
7029;SDS011;3556;53.500;10.176;2023-02-01T04:51:04;13.30;;;2.60;;
7029;SDS011;3556;53.500;10.176;2023-02-01T04:53:30;6.73;;;2.00;;
7029;SDS011;3556;53.500;10.176;2023-02-01T04:55:56;17.07;;;2.40;;
7029;SDS011;3556;53.500;10.176;2023-02-01T04:58:21;19.50;;;2.43;;
7029;SDS011;3556;53.500;10.176;2023-02-01T05:00:47;13.70;;;3.30;;
7029;SDS011;3556;53.500;10.176;2023-02-01T05:03:14;15.73;;;2.47;;
7029;SDS011;3556;53.500;10.176;2023-02-01T05:05:40;19.73;;;2.50;;
7029;SDS011;3556;53.500;10.176;2023-02-01T05:08:06;10.37;;;2.77;;
7029;SDS011;3556;53.500;10.176;2023-02-01T05:10:31;6.87;;;2.03;;
7029;SDS011;3556;53.500;10.176;2023-02-01T05:12:57;8.10;;;1.97;;
7029;SDS011;3556;53.500;10.176;2023-02-01T05:15:41;8.50;;;2.00;;
7029;SDS011;3556;53.500;10.176;2023-02-01T05:18:07;3.50;;;1.70;;
7029;SDS011;3556;53.500;10.176;2023-02-01T05:20:32;4.80;;;0.90;;
7029;SDS011;3556;53.500;10.176;2023-02-01T05:22:58;4.50;;;1.17;;
7029;SDS011;3556;53.500;10.176;2023-02-01T05:25:24;7.70;;;1.33;;
7029;SDS011;3556;53.500;10.176;2023-02-01T05:27:50;4.77;;;1.20;;
7029;SDS011;3556;53.500;10.176;2023-02-01T05:30:15;2.13;;;0.80;;
7029;SDS011;3556;53.500;10.176;2023-02-01T05:32:42;0.83;;;0.70;;
7029;SDS011;3556;53.500;10.176;2023-02-01T05:35:07;2.50;;;0.67;;
7029;SDS011;3556;53.500;10.176;2023-02-01T05:37:33;1.00;;;0.70;;
7029;SDS011;3556;53.500;10.176;2023-02-01T05:39:59;2.20;;;0.70;;
7029;SDS011;3556;53.500;10.176;2023-02-01T05:42:24;2.10;;;0.80;;
7029;SDS011;3556;53.500;10.176;2023-02-01T05:44:50;1.30;;;0.63;;
7029;SDS011;3556;53.500;10.176;2023-02-01T05:47:15;0.70;;;0.50;;
7029;SDS011;3556;53.500;10.176;2023-02-01T05:49:41;1.97;;;0.80;;
7029;SDS011;3556;53.500;10.176;2023-02-01T05:52:07;1.70;;;0.60;;
7029;SDS011;3556;53.500;10.176;2023-02-01T05:54:32;2.43;;;0.60;;
7029;SDS011;3556;53.500;10.176;2023-02-01T05:56:58;2.20;;;0.70;;
7029;SDS011;3556;53.500;10.176;2023-02-01T05:59:24;1.97;;;0.60;;
7029;SDS011;3556;53.500;10.176;2023-02-01T06:01:49;1.63;;;0.60;;
7029;SDS011;3556;53.500;10.176;2023-02-01T06:04:15;0.80;;;0.80;;
7029;SDS011;3556;53.500;10.176;2023-02-01T06:06:41;1.53;;;0.80;;
7029;SDS011;3556;53.500;10.176;2023-02-01T06:09:06;1.10;;;0.60;;
7029;SDS011;3556;53.500;10.176;2023-02-01T06:11:32;1.33;;;0.53;;
7029;SDS011;3556;53.500;10.176;2023-02-01T06:13:57;0.60;;;0.60;;
7029;SDS011;3556;53.500;10.176;2023-02-01T06:16:23;1.20;;;0.70;;
7029;SDS011;3556;53.500;10.176;2023-02-01T06:18:49;0.83;;;0.83;;
7029;SDS011;3556;53.500;10.176;2023-02-01T06:21:15;7.23;;;0.87;;
7029;SDS011;3556;53.500;10.176;2023-02-01T06:23:48;2.57;;;0.87;;
7029;SDS011;3556;53.500;10.176;2023-02-01T06:26:18;4.70;;;0.90;;
7029;SDS011;3556;53.500;10.176;2023-02-01T06:28:44;1.10;;;1.07;;
7029;SDS011;3556;53.500;10.176;2023-02-01T06:31:09;4.20;;;0.90;;
7029;SDS011;3556;53.500;10.176;2023-02-01T06:33:36;1.30;;;1.20;;
7029;SDS011;3556;53.500;10.176;2023-02-01T06:36:02;1.73;;;1.00;;
7029;SDS011;3556;53.500;10.176;2023-02-01T06:38:30;1.43;;;1.13;;
7029;SDS011;3556;53.500;10.176;2023-02-01T06:40:56;2.60;;;1.07;;
7029;SDS011;3556;53.500;10.176;2023-02-01T06:43:23;1.20;;;1.00;;
7029;SDS011;3556;53.500;10.176;2023-02-01T06:45:50;3.57;;;1.40;;
7029;SDS011;3556;53.500;10.176;2023-02-01T06:48:16;1.70;;;1.37;;
7029;SDS011;3556;53.500;10.176;2023-02-01T06:50:42;7.77;;;1.33;;
7029;SDS011;3556;53.500;10.176;2023-02-01T06:53:08;7.70;;;2.07;;
7029;SDS011;3556;53.500;10.176;2023-02-01T06:55:34;10.47;;;2.23;;
7029;SDS011;3556;53.500;10.176;2023-02-01T06:58:00;11.83;;;1.97;;
7029;SDS011;3556;53.500;10.176;2023-02-01T07:00:27;5.77;;;1.73;;
7029;SDS011;3556;53.500;10.176;2023-02-01T07:02:53;12.27;;;2.17;;
7029;SDS011;3556;53.500;10.176;2023-02-01T07:05:19;13.37;;;2.40;;
7029;SDS011;3556;53.500;10.176;2023-02-01T07:07:45;11.53;;;2.40;;
7029;SDS011;3556;53.500;10.176;2023-02-01T07:10:10;14.40;;;2.53;;
7029;SDS011;3556;53.500;10.176;2023-02-01T07:12:36;15.30;;;2.70;;
7029;SDS011;3556;53.500;10.176;2023-02-01T07:15:02;22.47;;;3.33;;
7029;SDS011;3556;53.500;10.176;2023-02-01T07:17:28;12.73;;;3.33;;
7029;SDS011;3556;53.500;10.176;2023-02-01T07:19:54;15.90;;;2.70;;
7029;SDS011;3556;53.500;10.176;2023-02-01T07:22:21;13.33;;;2.50;;
7029;SDS011;3556;53.500;10.176;2023-02-01T07:24:47;35.03;;;3.67;;
7029;SDS011;3556;53.500;10.176;2023-02-01T07:27:13;16.67;;;2.57;;
7029;SDS011;3556;53.500;10.176;2023-02-01T07:29:39;15.43;;;3.03;;
7029;SDS011;3556;53.500;10.176;2023-02-01T07:32:04;20.77;;;3.20;;
7029;SDS011;3556;53.500;10.176;2023-02-01T07:34:30;17.67;;;2.70;;
7029;SDS011;3556;53.500;10.176;2023-02-01T07:36:56;9.87;;;2.87;;
7029;SDS011;3556;53.500;10.176;2023-02-01T07:39:21;21.97;;;3.40;;
7029;SDS011;3556;53.500;10.176;2023-02-01T07:41:47;30.33;;;3.90;;
7029;SDS011;3556;53.500;10.176;2023-02-01T07:44:13;14.40;;;3.37;;
7029;SDS011;3556;53.500;10.176;2023-02-01T07:46:39;21.77;;;3.40;;
7029;SDS011;3556;53.500;10.176;2023-02-01T07:49:08;14.57;;;3.33;;
7029;SDS011;3556;53.500;10.176;2023-02-01T07:51:34;27.03;;;4.17;;
7029;SDS011;3556;53.500;10.176;2023-02-01T07:53:59;25.63;;;4.73;;
7029;SDS011;3556;53.500;10.176;2023-02-01T07:56:25;26.77;;;4.50;;
7029;SDS011;3556;53.500;10.176;2023-02-01T07:58:51;26.50;;;4.90;;
7029;SDS011;3556;53.500;10.176;2023-02-01T08:01:20;28.67;;;4.23;;
7029;SDS011;3556;53.500;10.176;2023-02-01T08:03:51;28.43;;;4.07;;
7029;SDS011;3556;53.500;10.176;2023-02-01T08:06:18;33.90;;;4.90;;
7029;SDS011;3556;53.500;10.176;2023-02-01T08:08:45;26.97;;;4.17;;
7029;SDS011;3556;53.500;10.176;2023-02-01T08:11:11;25.67;;;4.40;;
7029;SDS011;3556;53.500;10.176;2023-02-01T08:13:38;25.47;;;3.93;;
7029;SDS011;3556;53.500;10.176;2023-02-01T08:16:05;17.47;;;3.33;;
7029;SDS011;3556;53.500;10.176;2023-02-01T08:18:33;45.60;;;5.33;;
7029;SDS011;3556;53.500;10.176;2023-02-01T08:21:10;31.43;;;4.77;;
7029;SDS011;3556;53.500;10.176;2023-02-01T08:23:38;28.77;;;4.37;;
7029;SDS011;3556;53.500;10.176;2023-02-01T08:28:34;25.80;;;4.27;;
7029;SDS011;3556;53.500;10.176;2023-02-01T08:31:04;40.30;;;4.70;;
7029;SDS011;3556;53.500;10.176;2023-02-01T08:33:30;22.03;;;4.10;;
7029;SDS011;3556;53.500;10.176;2023-02-01T08:35:56;22.03;;;3.80;;
7029;SDS011;3556;53.500;10.176;2023-02-01T08:38:21;34.27;;;4.57;;
7029;SDS011;3556;53.500;10.176;2023-02-01T08:40:47;40.53;;;4.90;;
7029;SDS011;3556;53.500;10.176;2023-02-01T08:43:13;28.50;;;5.03;;
7029;SDS011;3556;53.500;10.176;2023-02-01T08:45:39;39.90;;;4.87;;
7029;SDS011;3556;53.500;10.176;2023-02-01T08:48:05;19.90;;;4.43;;
7029;SDS011;3556;53.500;10.176;2023-02-01T08:50:31;35.07;;;3.57;;
7029;SDS011;3556;53.500;10.176;2023-02-01T08:52:56;33.53;;;4.10;;
7029;SDS011;3556;53.500;10.176;2023-02-01T08:55:22;30.60;;;4.80;;
7029;SDS011;3556;53.500;10.176;2023-02-01T08:57:48;32.07;;;5.80;;
7029;SDS011;3556;53.500;10.176;2023-02-01T09:00:15;37.43;;;4.73;;
7029;SDS011;3556;53.500;10.176;2023-02-01T09:02:42;29.30;;;4.67;;
7029;SDS011;3556;53.500;10.176;2023-02-01T09:05:08;24.20;;;4.23;;
7029;SDS011;3556;53.500;10.176;2023-02-01T09:07:34;29.60;;;5.47;;
7029;SDS011;3556;53.500;10.176;2023-02-01T09:10:00;36.87;;;4.90;;
7029;SDS011;3556;53.500;10.176;2023-02-01T09:12:27;29.57;;;5.90;;
7029;SDS011;3556;53.500;10.176;2023-02-01T09:14:53;43.97;;;4.87;;
7029;SDS011;3556;53.500;10.176;2023-02-01T09:17:24;32.67;;;4.67;;
7029;SDS011;3556;53.500;10.176;2023-02-01T09:19:50;40.33;;;4.97;;
7029;SDS011;3556;53.500;10.176;2023-02-01T09:22:16;16.80;;;3.63;;
7029;SDS011;3556;53.500;10.176;2023-02-01T09:24:41;28.07;;;3.87;;
7029;SDS011;3556;53.500;10.176;2023-02-01T09:27:07;16.03;;;3.63;;
7029;SDS011;3556;53.500;10.176;2023-02-01T09:29:33;22.00;;;3.70;;
7029;SDS011;3556;53.500;10.176;2023-02-01T09:31:58;24.13;;;3.80;;
7029;SDS011;3556;53.500;10.176;2023-02-01T09:34:24;36.80;;;3.47;;
7029;SDS011;3556;53.500;10.176;2023-02-01T09:36:50;38.23;;;4.83;;
7029;SDS011;3556;53.500;10.176;2023-02-01T09:39:15;28.17;;;3.40;;
7029;SDS011;3556;53.500;10.176;2023-02-01T09:47:23;31.17;;;4.53;;
7029;SDS011;3556;53.500;10.176;2023-02-01T09:49:55;23.67;;;3.77;;
7029;SDS011;3556;53.500;10.176;2023-02-01T09:52:29;27.83;;;4.30;;
7029;SDS011;3556;53.500;10.176;2023-02-01T09:55:00;27.47;;;4.50;;
7029;SDS011;3556;53.500;10.176;2023-02-01T10:00:34;27.03;;;3.77;;
7029;SDS011;3556;53.500;10.176;2023-02-01T10:03:02;26.93;;;4.13;;
7029;SDS011;3556;53.500;10.176;2023-02-01T10:09:28;17.00;;;3.87;;
7029;SDS011;3556;53.500;10.176;2023-02-01T10:20:24;20.23;;;3.60;;
7029;SDS011;3556;53.500;10.176;2023-02-01T10:25:54;27.37;;;3.17;;
7029;SDS011;3556;53.500;10.176;2023-02-01T10:28:21;27.33;;;3.63;;
7029;SDS011;3556;53.500;10.176;2023-02-01T10:30:49;20.27;;;3.33;;
7029;SDS011;3556;53.500;10.176;2023-02-01T10:33:26;19.00;;;3.70;;
7029;SDS011;3556;53.500;10.176;2023-02-01T10:36:22;27.03;;;3.60;;
7029;SDS011;3556;53.500;10.176;2023-02-01T10:38:55;19.77;;;3.97;;
7029;SDS011;3556;53.500;10.176;2023-02-01T10:41:22;19.60;;;3.63;;
7029;SDS011;3556;53.500;10.176;2023-02-01T10:43:51;20.83;;;3.80;;
7029;SDS011;3556;53.500;10.176;2023-02-01T10:46:20;17.13;;;3.40;;
7029;SDS011;3556;53.500;10.176;2023-02-01T10:48:48;19.37;;;3.10;;
7029;SDS011;3556;53.500;10.176;2023-02-01T10:51:16;24.80;;;3.50;;
7029;SDS011;3556;53.500;10.176;2023-02-01T10:53:58;21.13;;;3.30;;
7029;SDS011;3556;53.500;10.176;2023-02-01T10:56:29;14.30;;;3.07;;
7029;SDS011;3556;53.500;10.176;2023-02-01T10:59:00;23.63;;;4.10;;
7029;SDS011;3556;53.500;10.176;2023-02-01T11:01:29;21.30;;;3.53;;
7029;SDS011;3556;53.500;10.176;2023-02-01T11:03:58;26.10;;;3.70;;
7029;SDS011;3556;53.500;10.176;2023-02-01T11:06:45;15.90;;;3.23;;
7029;SDS011;3556;53.500;10.176;2023-02-01T11:09:21;36.67;;;4.30;;
7029;SDS011;3556;53.500;10.176;2023-02-01T11:14:57;25.30;;;3.80;;
7029;SDS011;3556;53.500;10.176;2023-02-01T11:19:43;30.17;;;3.30;;
7029;SDS011;3556;53.500;10.176;2023-02-01T11:22:10;31.70;;;3.80;;
7029;SDS011;3556;53.500;10.176;2023-02-01T11:24:38;19.03;;;3.43;;
7029;SDS011;3556;53.500;10.176;2023-02-01T11:27:16;31.60;;;4.47;;
7029;SDS011;3556;53.500;10.176;2023-02-01T11:29:46;19.80;;;4.00;;
7029;SDS011;3556;53.500;10.176;2023-02-01T11:32:16;24.00;;;3.87;;
7029;SDS011;3556;53.500;10.176;2023-02-01T11:34:45;35.73;;;3.93;;
7029;SDS011;3556;53.500;10.176;2023-02-01T11:37:24;10.37;;;3.90;;
7029;SDS011;3556;53.500;10.176;2023-02-01T11:39:58;25.07;;;3.40;;
7029;SDS011;3556;53.500;10.176;2023-02-01T11:42:29;29.77;;;3.70;;
7029;SDS011;3556;53.500;10.176;2023-02-01T11:45:15;22.00;;;3.70;;
7029;SDS011;3556;53.500;10.176;2023-02-01T11:47:46;26.33;;;4.20;;
7029;SDS011;3556;53.500;10.176;2023-02-01T11:50:16;29.80;;;4.00;;
7029;SDS011;3556;53.500;10.176;2023-02-01T12:12:40;10.77;;;2.73;;
7029;SDS011;3556;53.500;10.176;2023-02-01T12:29:11;18.07;;;2.63;;
7029;SDS011;3556;53.500;10.176;2023-02-01T12:31:52;6.20;;;2.07;;
7029;SDS011;3556;53.500;10.176;2023-02-01T12:39:40;7.07;;;2.00;;
7029;SDS011;3556;53.500;10.176;2023-02-01T12:42:27;7.83;;;2.23;;
7029;SDS011;3556;53.500;10.176;2023-02-01T12:47:35;4.83;;;0.90;;
7029;SDS011;3556;53.500;10.176;2023-02-01T12:53:33;1.73;;;0.77;;
7029;SDS011;3556;53.500;10.176;2023-02-01T12:56:02;1.47;;;0.90;;
7029;SDS011;3556;53.500;10.176;2023-02-01T12:58:35;1.33;;;0.83;;
7029;SDS011;3556;53.500;10.176;2023-02-01T13:01:11;0.73;;;0.67;;
7029;SDS011;3556;53.500;10.176;2023-02-01T13:06:38;1.20;;;1.00;;
7029;SDS011;3556;53.500;10.176;2023-02-01T13:09:28;1.40;;;0.80;;
7029;SDS011;3556;53.500;10.176;2023-02-01T13:12:15;0.60;;;0.60;;
7029;SDS011;3556;53.500;10.176;2023-02-01T13:19:59;0.70;;;0.50;;
7029;SDS011;3556;53.500;10.176;2023-02-01T13:22:45;2.07;;;0.90;;
7029;SDS011;3556;53.500;10.176;2023-02-01T13:25:18;1.50;;;0.60;;
7029;SDS011;3556;53.500;10.176;2023-02-01T13:28:11;2.30;;;1.00;;
7029;SDS011;3556;53.500;10.176;2023-02-01T13:42:03;0.60;;;0.60;;
7029;SDS011;3556;53.500;10.176;2023-02-01T13:48:01;0.70;;;0.60;;
7029;SDS011;3556;53.500;10.176;2023-02-01T13:55:37;0.60;;;0.53;;
7029;SDS011;3556;53.500;10.176;2023-02-01T14:00:45;0.77;;;0.77;;
7029;SDS011;3556;53.500;10.176;2023-02-01T14:03:19;3.43;;;1.00;;
7029;SDS011;3556;53.500;10.176;2023-02-01T14:08:13;1.10;;;0.77;;
7029;SDS011;3556;53.500;10.176;2023-02-01T14:10:47;2.87;;;0.97;;
7029;SDS011;3556;53.500;10.176;2023-02-01T14:26:45;4.40;;;1.00;;
7029;SDS011;3556;53.500;10.176;2023-02-01T14:31:47;3.27;;;1.10;;
7029;SDS011;3556;53.500;10.176;2023-02-01T14:42:43;6.57;;;1.40;;
7029;SDS011;3556;53.500;10.176;2023-02-01T14:47:49;7.10;;;1.43;;
7029;SDS011;3556;53.500;10.176;2023-02-01T14:50:39;11.77;;;2.10;;
7029;SDS011;3556;53.500;10.176;2023-02-01T14:58:52;5.93;;;1.50;;
7029;SDS011;3556;53.500;10.176;2023-02-01T15:00:59;7.00;;;1.40;;
7029;SDS011;3556;53.500;10.176;2023-02-01T15:04:02;7.67;;;2.37;;
7029;SDS011;3556;53.500;10.176;2023-02-01T15:09:20;13.90;;;2.40;;
7029;SDS011;3556;53.500;10.176;2023-02-01T15:14:44;15.33;;;2.07;;
7029;SDS011;3556;53.500;10.176;2023-02-01T15:17:29;12.03;;;1.97;;
7029;SDS011;3556;53.500;10.176;2023-02-01T15:20:15;12.30;;;1.93;;
7029;SDS011;3556;53.500;10.176;2023-02-01T15:23:19;19.27;;;2.67;;
7029;SDS011;3556;53.500;10.176;2023-02-01T15:25:45;23.93;;;2.33;;
7029;SDS011;3556;53.500;10.176;2023-02-01T15:28:14;16.87;;;3.03;;
7029;SDS011;3556;53.500;10.176;2023-02-01T15:30:51;25.97;;;2.50;;
7029;SDS011;3556;53.500;10.176;2023-02-01T15:33:55;9.63;;;2.20;;
7029;SDS011;3556;53.500;10.176;2023-02-01T15:36:22;14.03;;;2.20;;
7029;SDS011;3556;53.500;10.176;2023-02-01T15:39:10;16.23;;;2.60;;
7029;SDS011;3556;53.500;10.176;2023-02-01T15:41:54;11.40;;;2.07;;
7029;SDS011;3556;53.500;10.176;2023-02-01T15:46:56;12.03;;;2.00;;
7029;SDS011;3556;53.500;10.176;2023-02-01T15:49:30;8.23;;;2.10;;
7029;SDS011;3556;53.500;10.176;2023-02-01T15:52:04;15.73;;;2.23;;
7029;SDS011;3556;53.500;10.176;2023-02-01T15:54:53;13.00;;;2.23;;
7029;SDS011;3556;53.500;10.176;2023-02-01T15:57:22;11.83;;;2.50;;
7029;SDS011;3556;53.500;10.176;2023-02-01T15:59:57;12.20;;;2.13;;
7029;SDS011;3556;53.500;10.176;2023-02-01T16:02:35;21.93;;;2.63;;
7029;SDS011;3556;53.500;10.176;2023-02-01T16:05:04;17.60;;;2.20;;
7029;SDS011;3556;53.500;10.176;2023-02-01T16:07:31;16.93;;;2.87;;
7029;SDS011;3556;53.500;10.176;2023-02-01T16:09:59;14.80;;;2.50;;
7029;SDS011;3556;53.500;10.176;2023-02-01T16:15:04;18.80;;;2.50;;
7029;SDS011;3556;53.500;10.176;2023-02-01T16:17:30;15.60;;;2.40;;
7029;SDS011;3556;53.500;10.176;2023-02-01T16:19:56;13.27;;;2.00;;
7029;SDS011;3556;53.500;10.176;2023-02-01T16:22:23;16.07;;;3.10;;
7029;SDS011;3556;53.500;10.176;2023-02-01T16:24:48;20.80;;;2.47;;
7029;SDS011;3556;53.500;10.176;2023-02-01T16:27:14;34.13;;;3.30;;
7029;SDS011;3556;53.500;10.176;2023-02-01T16:29:40;24.17;;;2.67;;
7029;SDS011;3556;53.500;10.176;2023-02-01T16:32:05;25.53;;;2.97;;
7029;SDS011;3556;53.500;10.176;2023-02-01T16:34:34;7.97;;;2.20;;
7029;SDS011;3556;53.500;10.176;2023-02-01T16:37:00;10.20;;;2.47;;
7029;SDS011;3556;53.500;10.176;2023-02-01T16:39:27;25.80;;;3.00;;
7029;SDS011;3556;53.500;10.176;2023-02-01T16:41:53;16.00;;;3.40;;
7029;SDS011;3556;53.500;10.176;2023-02-01T16:44:19;22.17;;;2.60;;
7029;SDS011;3556;53.500;10.176;2023-02-01T16:46:45;27.20;;;3.40;;
7029;SDS011;3556;53.500;10.176;2023-02-01T16:49:30;22.27;;;2.87;;
7029;SDS011;3556;53.500;10.176;2023-02-01T16:51:56;17.00;;;4.00;;
7029;SDS011;3556;53.500;10.176;2023-02-01T16:54:23;25.53;;;3.90;;
7029;SDS011;3556;53.500;10.176;2023-02-01T16:56:49;23.23;;;4.17;;
7029;SDS011;3556;53.500;10.176;2023-02-01T16:59:15;28.50;;;4.53;;
7029;SDS011;3556;53.500;10.176;2023-02-01T17:01:40;24.20;;;3.80;;
7029;SDS011;3556;53.500;10.176;2023-02-01T17:04:07;25.63;;;5.03;;
7029;SDS011;3556;53.500;10.176;2023-02-01T17:06:34;37.50;;;3.83;;
7029;SDS011;3556;53.500;10.176;2023-02-01T17:09:02;30.53;;;4.23;;
7029;SDS011;3556;53.500;10.176;2023-02-01T17:11:28;35.57;;;5.27;;
7029;SDS011;3556;53.500;10.176;2023-02-01T17:13:55;31.80;;;4.50;;
7029;SDS011;3556;53.500;10.176;2023-02-01T17:16:29;33.00;;;4.27;;
7029;SDS011;3556;53.500;10.176;2023-02-01T17:18:57;33.70;;;4.80;;
7029;SDS011;3556;53.500;10.176;2023-02-01T17:21:25;47.30;;;4.60;;
7029;SDS011;3556;53.500;10.176;2023-02-01T17:23:52;37.77;;;5.10;;
7029;SDS011;3556;53.500;10.176;2023-02-01T17:26:18;34.43;;;4.40;;
7029;SDS011;3556;53.500;10.176;2023-02-01T17:28:44;36.93;;;4.57;;
7029;SDS011;3556;53.500;10.176;2023-02-01T17:31:12;26.03;;;3.70;;
7029;SDS011;3556;53.500;10.176;2023-02-01T17:33:40;52.70;;;6.17;;
7029;SDS011;3556;53.500;10.176;2023-02-01T17:36:05;53.10;;;4.90;;
7029;SDS011;3556;53.500;10.176;2023-02-01T17:38:35;29.93;;;4.60;;
7029;SDS011;3556;53.500;10.176;2023-02-01T17:41:00;28.97;;;4.37;;
7029;SDS011;3556;53.500;10.176;2023-02-01T17:43:26;28.67;;;4.67;;
7029;SDS011;3556;53.500;10.176;2023-02-01T17:45:56;33.23;;;4.40;;
7029;SDS011;3556;53.500;10.176;2023-02-01T17:48:25;40.37;;;5.33;;
7029;SDS011;3556;53.500;10.176;2023-02-01T17:50:51;27.63;;;4.47;;
7029;SDS011;3556;53.500;10.176;2023-02-01T17:53:22;39.67;;;5.20;;
7029;SDS011;3556;53.500;10.176;2023-02-01T17:55:50;33.97;;;4.97;;
7029;SDS011;3556;53.500;10.176;2023-02-01T17:58:16;35.10;;;6.17;;
7029;SDS011;3556;53.500;10.176;2023-02-01T18:00:43;27.53;;;4.20;;
7029;SDS011;3556;53.500;10.176;2023-02-01T18:03:17;30.47;;;3.27;;
7029;SDS011;3556;53.500;10.176;2023-02-01T18:05:48;26.80;;;4.53;;
7029;SDS011;3556;53.500;10.176;2023-02-01T18:08:16;27.87;;;4.50;;
7029;SDS011;3556;53.500;10.176;2023-02-01T18:10:42;26.23;;;4.27;;
7029;SDS011;3556;53.500;10.176;2023-02-01T18:13:09;31.93;;;4.80;;
7029;SDS011;3556;53.500;10.176;2023-02-01T18:15:36;23.70;;;4.00;;
7029;SDS011;3556;53.500;10.176;2023-02-01T18:18:03;20.50;;;3.33;;